Aviation Digital Data Service (ADDS)

Output produced by METARs form (0157 UTC 26 June 2017)
found at http://aviationweather.gov/adds/metars/
 
KBTV 252340Z 2600/2624 VRB04KT P6SM VCSH SCT080 
     FM260400 20006KT P6SM SCT200 
     FM261200 22007KT P6SM SCT050 
     FM261600 30008KT P6SM VCSH BKN050